Time;durP1;ratioP1;P1;durP2;ratioP2;P2;SDS_P1;SDS_P2;PMS_P1;PMS_P2;Temp;Humidity;BMP_temperature;BMP_pressure;BME280_temperature;BME280_humidity;BME280_pressure;Samples;Min_cycle;Max_cycle;Signal;HPM_P1;HPM_P2
2022/04/24 00:00:37;;;;;;;18.55;9.15;;;;;;;13.23;83.36;98051.28;5090399;28;20024;-62
2022/04/24 00:03:03;;;;;;;16.30;8.25;;;;;;;13.23;83.40;98061.94;5090257;28;20107;-62
2022/04/24 00:05:28;;;;;;;17.52;9.70;;;;;;;13.19;83.36;98057.78;5090587;28;20024;-62
2022/04/24 00:07:53;;;;;;;16.77;9.10;;;;;;;13.17;83.75;98057.06;5090920;28;20069;-62
2022/04/24 00:10:19;;;;;;;16.83;8.82;;;;;;;13.20;84.14;98055.97;5091590;28;20024;-62
2022/04/24 00:12:44;;;;;;;15.55;9.07;;;;;;;13.20;84.05;98048.84;5090774;28;20114;-62
2022/04/24 00:15:10;;;;;;;15.30;8.43;;;;;;;13.17;83.80;98046.41;5091918;28;20357;-62
2022/04/24 00:17:37;;;;;;;14.80;8.88;;;;;;;13.21;84.23;98050.53;5091370;28;20024;-62
2022/04/24 00:20:02;;;;;;;18.17;8.98;;;;;;;13.26;83.37;98054.69;5073951;28;20714;-62
2022/04/24 00:22:28;;;;;;;15.43;8.77;;;;;;;13.25;83.28;98045.81;5071637;28;20120;-62
2022/04/24 00:24:54;;;;;;;16.75;9.00;;;;;;;13.27;83.32;98053.72;5084018;28;20085;-62
2022/04/24 00:27:19;;;;;;;14.57;8.70;;;;;;;13.27;82.74;98056.38;5092184;28;20103;-62
2022/04/24 00:29:44;;;;;;;15.43;8.60;;;;;;;13.30;82.48;98045.47;5091308;28;20360;-62
2022/04/24 00:32:10;;;;;;;16.70;8.50;;;;;;;13.32;82.52;98039.06;5091682;28;20024;-62
2022/04/24 00:34:35;;;;;;;13.77;9.00;;;;;;;13.30;82.35;98046.31;5091841;28;20031;-62
2022/04/24 00:37:01;;;;;;;15.27;8.40;;;;;;;13.35;82.79;98053.97;5091794;28;20027;-62
2022/04/24 00:39:27;;;;;;;17.00;8.65;;;;;;;13.36;82.18;98055.72;5091749;28;20047;-62
2022/04/24 00:41:52;;;;;;;15.23;8.20;;;;;;;13.40;81.07;98057.16;5091634;28;20090;-62
2022/04/24 00:44:19;;;;;;;15.15;8.63;;;;;;;13.45;81.15;98060.34;5091432;28;20073;-62
2022/04/24 00:46:44;;;;;;;15.48;7.78;;;;;;;13.48;80.97;98060.09;5077678;28;20032;-62
2022/04/24 00:49:11;;;;;;;16.35;8.75;;;;;;;13.48;80.40;98062.78;5071434;28;20029;-62
2022/04/24 00:51:38;;;;;;;13.88;7.93;;;;;;;13.48;79.99;98068.13;5073848;28;20054;-62
2022/04/24 00:54:08;;;;;;;14.25;7.72;;;;;;;13.47;80.02;98064.63;5071548;28;20024;-62
2022/04/24 00:56:35;;;;;;;16.92;8.25;;;;;;;13.50;80.26;98074.19;5085713;28;20028;-62
2022/04/24 00:59:03;;;;;;;14.50;8.07;;;;;;;13.56;79.65;98082.59;5091404;28;20032;-62
2022/04/24 01:01:29;;;;;;;16.88;8.68;;;;;;;13.55;79.91;98083.59;5091773;28;20028;-62
2022/04/24 01:04:02;;;;;;;11.85;6.75;;;;;;;13.51;79.55;98082.09;5091941;28;20051;-62
2022/04/24 01:06:39;;;;;;;14.98;8.27;;;;;;;13.51;80.11;98081.28;5095809;28;20031;-62
2022/04/24 01:09:18;;;;;;;14.15;7.88;;;;;;;13.54;80.35;98091.72;5095289;28;20032;-62
2022/04/24 01:11:50;;;;;;;15.52;8.60;;;;;;;13.50;81.39;98095.56;5095725;28;20497;-62
2022/04/24 01:14:16;;;;;;;15.10;8.43;;;;;;;13.55;80.52;98099.63;5095495;28;20031;-62
2022/04/24 01:16:42;;;;;;;15.48;9.13;;;;;;;13.49;80.77;98102.75;5095325;28;20027;-62
2022/04/24 01:19:08;;;;;;;16.85;8.10;;;;;;;13.37;81.13;98094.78;5095078;28;20024;-62
2022/04/24 01:21:34;;;;;;;12.05;7.13;;;;;;;13.41;81.75;98104.28;5095045;28;20404;-62
2022/04/24 01:24:03;;;;;;;14.70;7.70;;;;;;;13.40;82.53;98110.56;5095110;28;20539;-62
2022/04/24 01:26:28;;;;;;;14.27;8.48;;;;;;;13.40;82.59;98115.91;5095220;28;20028;-62
2022/04/24 01:28:54;;;;;;;13.57;7.82;;;;;;;13.39;83.60;98123.09;5088872;28;20024;-63
2022/04/24 01:31:19;;;;;;;16.35;8.88;;;;;;;13.41;84.30;98118.47;5074657;28;20392;-63
2022/04/24 01:33:45;;;;;;;17.00;8.82;;;;;;;13.40;84.26;98124.78;5083404;28;20016;-63
2022/04/24 01:36:11;;;;;;;16.30;8.85;;;;;;;13.45;84.06;98129.78;5074833;28;20240;-63
2022/04/24 01:38:36;;;;;;;14.10;7.65;;;;;;;13.46;84.25;98135.00;5074450;28;20024;-63
2022/04/24 01:41:02;;;;;;;15.52;8.98;;;;;;;13.44;84.69;98130.75;5086903;28;20028;-62
2022/04/24 01:43:28;;;;;;;13.88;8.60;;;;;;;13.46;84.01;98132.34;5094901;28;20038;-62
2022/04/24 01:45:53;;;;;;;15.77;8.07;;;;;;;13.42;84.34;98135.34;5094736;28;20046;-62
2022/04/24 01:48:20;;;;;;;13.80;8.23;;;;;;;13.45;84.89;98133.31;5094932;28;20376;-62
2022/04/24 01:50:45;;;;;;;13.40;8.13;;;;;;;13.45;83.55;98119.97;5094857;28;20046;-62
2022/04/24 01:53:11;;;;;;;12.60;7.63;;;;;;;13.54;80.53;98126.44;5094675;28;20028;-62
2022/04/24 01:55:36;;;;;;;12.82;8.25;;;;;;;13.52;80.70;98131.03;5094875;28;20099;-62
2022/04/24 01:58:02;;;;;;;12.90;7.93;;;;;;;13.44;81.05;98136.09;5094522;28;20020;-62
2022/04/24 02:00:29;;;;;;;14.35;7.63;;;;;;;13.42;82.57;98140.69;5094537;28;20422;-62
2022/04/24 02:02:55;;;;;;;11.65;8.18;;;;;;;13.41;84.75;98144.34;5094516;28;20027;-62
2022/04/24 02:05:20;;;;;;;13.90;8.23;;;;;;;13.39;85.78;98140.94;5094242;28;20031;-62
2022/04/24 02:07:46;;;;;;;14.60;7.88;;;;;;;13.35;86.42;98129.63;5094330;28;20077;-62
2022/04/24 02:10:11;;;;;;;17.65;9.13;;;;;;;13.33;86.84;98138.72;5094374;28;20099;-62
2022/04/24 02:12:40;;;;;;;13.85;9.30;;;;;;;13.38;88.17;98141.91;5094461;28;20048;-62
2022/04/24 02:15:07;;;;;;;14.35;8.23;;;;;;;13.37;88.70;98149.06;5094241;28;20490;-62
2022/04/24 02:17:32;;;;;;;13.45;7.72;;;;;;;13.34;89.25;98159.09;5093481;28;20023;-62
2022/04/24 02:19:58;;;;;;;13.05;7.85;;;;;;;13.32;89.63;98155.69;5093951;28;20036;-62
2022/04/24 02:22:23;;;;;;;15.23;8.30;;;;;;;13.26;90.43;98151.66;5093556;28;20056;-62
2022/04/24 02:24:48;;;;;;;14.18;8.15;;;;;;;13.23;91.12;98156.38;5093773;28;20470;-62
2022/04/24 02:27:14;;;;;;;13.45;8.20;;;;;;;13.20;91.45;98158.28;5078969;28;20098;-62
2022/04/24 02:29:39;;;;;;;16.48;8.60;;;;;;;13.15;91.25;98149.75;5073764;28;20487;-62
2022/04/24 02:32:05;;;;;;;15.27;7.65;;;;;;;13.07;90.55;98157.47;5079579;28;20032;-62
2022/04/24 02:34:30;;;;;;;16.42;8.05;;;;;;;13.10;91.02;98159.91;5093717;28;20375;-62
2022/04/24 02:36:56;;;;;;;13.18;8.18;;;;;;;13.10;92.02;98159.06;5093835;28;20093;-62
2022/04/24 02:39:21;;;;;;;15.07;8.35;;;;;;;13.13;92.86;98170.38;5093729;28;20038;-62
2022/04/24 02:41:46;;;;;;;15.68;8.60;;;;;;;13.20;93.16;98162.75;5093302;28;20115;-62
2022/04/24 02:44:12;;;;;;;16.83;8.68;;;;;;;13.19;92.90;98177.91;5092134;28;20103;-62
2022/04/24 02:46:38;;;;;;;13.63;7.82;;;;;;;13.20;92.65;98179.66;5093776;28;20024;-62
2022/04/24 02:49:03;;;;;;;17.30;10.18;;;;;;;13.13;92.29;98174.84;5094010;28;20024;-62
2022/04/24 02:51:28;;;;;;;16.05;9.52;;;;;;;13.18;93.15;98191.38;5090880;28;20402;-62
2022/04/24 02:53:54;;;;;;;16.70;9.23;;;;;;;13.07;92.84;98208.19;5073775;28;20038;-62
2022/04/24 02:56:19;;;;;;;20.70;9.30;;;;;;;13.01;93.26;98200.59;5075741;28;20032;-62
2022/04/24 02:58:44;;;;;;;14.60;8.45;;;;;;;13.03;93.31;98204.03;5073261;28;20495;-62
2022/04/24 03:01:11;;;;;;;15.95;9.15;;;;;;;13.01;93.57;98205.94;5072868;28;20036;-62
2022/04/24 03:03:37;;;;;;;14.88;9.10;;;;;;;12.99;93.94;98212.31;5092983;28;20032;-62
2022/04/24 03:06:03;;;;;;;17.15;9.93;;;;;;;12.99;93.45;98218.53;5092974;28;20036;-62
2022/04/24 03:08:29;;;;;;;16.40;9.23;;;;;;;12.98;92.82;98210.63;5093395;28;20023;-62
2022/04/24 03:10:54;;;;;;;17.52;9.77;;;;;;;13.03;93.81;98222.69;5093073;28;20484;-62
2022/04/24 03:13:19;;;;;;;19.17;9.70;;;;;;;13.02;94.05;98217.47;5093225;28;20024;-62
2022/04/24 03:15:45;;;;;;;19.58;10.10;;;;;;;12.99;95.01;98223.88;5093198;28;20058;-62
2022/04/24 03:18:10;;;;;;;17.45;10.05;;;;;;;12.98;94.90;98222.13;5092815;28;20023;-62
2022/04/24 03:20:36;;;;;;;16.23;9.50;;;;;;;12.97;95.21;98231.13;5085408;28;20407;-62
2022/04/24 03:23:01;;;;;;;15.98;8.95;;;;;;;12.96;94.92;98226.72;5072865;28;20464;-62
2022/04/24 03:25:26;;;;;;;18.58;9.20;;;;;;;12.98;95.09;98235.47;5072740;28;20028;-62
2022/04/24 03:27:52;;;;;;;15.63;8.02;;;;;;;12.92;94.40;98227.91;5072655;28;20024;-62
2022/04/24 03:30:18;;;;;;;16.20;9.48;;;;;;;12.93;94.93;98226.94;5072650;28;20029;-62
2022/04/24 03:32:43;;;;;;;15.02;8.75;;;;;;;12.96;95.08;98237.41;5083644;28;20039;-63
2022/04/24 03:35:10;;;;;;;16.25;9.90;;;;;;;12.91;94.40;98236.91;5092451;28;20081;-63
2022/04/24 03:37:39;;;;;;;12.85;8.73;;;;;;;12.89;94.75;98246.81;5082550;28;20020;-62
2022/04/24 03:40:06;;;;;;;17.67;10.35;;;;;;;12.85;93.70;98234.63;5092432;28;20023;-63
2022/04/24 03:42:32;;;;;;;18.40;10.38;;;;;;;12.91;94.24;98247.56;5093025;28;20027;-63
2022/04/24 03:44:59;;;;;;;18.35;10.82;;;;;;;12.91;95.44;98252.03;5092787;28;20032;-63
2022/04/24 03:47:24;;;;;;;19.67;10.43;;;;;;;12.91;95.96;98252.91;5092461;28;20398;-63
2022/04/24 03:49:51;;;;;;;20.20;11.30;;;;;;;12.87;96.73;98251.41;5092577;28;20020;-63
2022/04/24 03:52:16;;;;;;;19.67;10.40;;;;;;;12.80;96.38;98263.44;5092300;28;20020;-62
2022/04/24 03:54:43;;;;;;;15.32;9.60;;;;;;;12.66;97.21;98255.56;5092815;28;20093;-62
2022/04/24 03:57:09;;;;;;;20.88;10.55;;;;;;;12.72;97.51;98273.81;5092262;28;20033;-62
2022/04/24 03:59:35;;;;;;;19.92;10.63;;;;;;;12.74;97.80;98282.56;5092227;28;20463;-62
2022/04/24 04:02:01;;;;;;;18.77;10.18;;;;;;;12.74;97.16;98287.03;5092345;28;20058;-63
2022/04/24 04:04:26;;;;;;;17.05;10.50;;;;;;;12.75;97.21;98288.75;5092196;28;20024;-63
2022/04/24 04:06:52;;;;;;;17.38;9.55;;;;;;;12.69;97.58;98294.50;5092321;28;20484;-63
2022/04/24 04:09:17;;;;;;;12.05;6.88;;;;;;;12.53;98.11;98300.03;5092135;28;20027;-62
2022/04/24 04:11:43;;;;;;;8.60;4.72;;;;;;;12.36;99.04;98302.97;5092170;28;20035;-62
2022/04/24 04:14:08;;;;;;;8.18;4.22;;;;;;;12.40;100.00;98298.28;5092298;28;20468;-62
2022/04/24 04:16:34;;;;;;;6.50;3.45;;;;;;;12.37;100.00;98310.00;5091452;28;20174;-62
2022/04/24 04:19:00;;;;;;;4.35;2.35;;;;;;;12.19;100.00;98295.22;5092109;28;20020;-62
2022/04/24 04:21:25;;;;;;;3.90;2.40;;;;;;;12.12;100.00;98303.75;5091348;28;20139;-62
2022/04/24 04:23:50;;;;;;;4.00;2.38;;;;;;;12.01;100.00;98311.59;5092022;28;20046;-62
2022/04/24 04:26:17;;;;;;;7.38;2.80;;;;;;;11.89;100.00;98313.25;5091840;28;20106;-62
2022/04/24 04:28:46;;;;;;;3.60;2.17;;;;;;;11.81;100.00;98316.41;5091925;28;20065;-61
2022/04/24 04:31:13;;;;;;;4.78;1.85;;;;;;;11.68;100.00;98322.59;5091523;28;20023;-61
2022/04/24 04:33:38;;;;;;;2.20;1.40;;;;;;;11.68;100.00;98325.25;5091867;28;20036;-62
2022/04/24 04:36:04;;;;;;;3.53;1.65;;;;;;;11.74;100.00;98324.91;5089905;28;20040;-62
2022/04/24 04:38:30;;;;;;;1.65;1.10;;;;;;;11.72;100.00;98327.66;5072470;28;20032;-62
2022/04/24 04:40:55;;;;;;;2.38;1.05;;;;;;;11.64;100.00;98334.41;5071080;28;20027;-62
2022/04/24 04:43:20;;;;;;;6.78;1.35;;;;;;;11.64;100.00;98339.75;5071638;28;20501;-62
2022/04/24 04:45:47;;;;;;;5.22;1.02;;;;;;;11.69;100.00;98341.19;5071194;28;20028;-62
2022/04/24 04:48:12;;;;;;;2.17;1.13;;;;;;;11.60;100.00;98343.50;5071614;28;20387;-62
2022/04/24 04:50:38;;;;;;;1.95;0.80;;;;;;;11.47;100.00;98356.75;5071425;28;20040;-61
2022/04/24 04:53:03;;;;;;;2.67;1.10;;;;;;;11.44;100.00;98354.28;5074007;28;20032;-62
2022/04/24 04:55:31;;;;;;;1.13;1.00;;;;;;;11.49;100.00;98359.31;5073990;28;20035;-61
2022/04/24 04:57:58;;;;;;;2.83;1.10;;;;;;;11.47;100.00;98364.75;5071133;28;20021;-61
2022/04/24 05:00:23;;;;;;;1.60;1.08;;;;;;;11.45;100.00;98366.63;5071679;28;20086;-61
2022/04/24 05:02:49;;;;;;;2.22;0.82;;;;;;;11.40;100.00;98367.88;5077930;28;20124;-61
2022/04/24 05:05:14;;;;;;;2.42;1.05;;;;;;;11.33;100.00;98366.56;5088972;28;20024;-61
2022/04/24 05:07:40;;;;;;;1.42;0.93;;;;;;;11.35;100.00;98369.97;5091315;28;20027;-61
2022/04/24 05:10:06;;;;;;;11.45;1.60;;;;;;;11.32;100.00;98368.34;5091334;28;20027;-61
2022/04/24 05:12:32;;;;;;;4.47;1.67;;;;;;;11.37;100.00;98376.03;5091545;28;20020;-61
2022/04/24 05:15:02;;;;;;;7.70;2.08;;;;;;;11.34;100.00;98377.09;5077957;28;20525;-61
2022/04/24 05:17:28;;;;;;;5.20;2.25;;;;;;;11.28;100.00;98379.28;5070776;28;20107;-61
2022/04/24 05:19:55;;;;;;;3.75;1.42;;;;;;;11.26;100.00;98382.03;5071440;28;20448;-61
2022/04/24 05:22:20;;;;;;;4.82;1.98;;;;;;;11.26;100.00;98381.19;5070815;28;20048;-61
2022/04/24 05:24:45;;;;;;;4.90;1.20;;;;;;;11.32;100.00;98383.44;5071250;28;20047;-61
2022/04/24 05:27:11;;;;;;;3.22;0.88;;;;;;;11.25;100.00;98385.63;5070837;28;20020;-61
2022/04/24 05:29:36;;;;;;;1.83;1.00;;;;;;;11.28;100.00;98384.59;5069564;28;20021;-61
2022/04/24 05:32:02;;;;;;;1.48;0.90;;;;;;;11.25;100.00;98387.47;5057307;28;20466;-61
2022/04/24 05:34:27;;;;;;;3.50;1.10;;;;;;;11.20;100.00;98397.53;5069312;28;20046;-61
2022/04/24 05:36:53;;;;;;;4.43;0.82;;;;;;;11.19;100.00;98395.78;5068975;28;20024;-62
2022/04/24 05:39:19;;;;;;;1.30;1.08;;;;;;;11.20;100.00;98406.34;5069023;28;20028;-62
2022/04/24 05:41:45;;;;;;;3.08;1.08;;;;;;;11.25;100.00;98398.94;5071061;28;20052;-62
2022/04/24 05:44:10;;;;;;;2.13;0.82;;;;;;;11.20;100.00;98397.53;5070721;28;20436;-62
2022/04/24 05:46:35;;;;;;;2.55;1.38;;;;;;;11.21;100.00;98409.88;5070615;28;20119;-62
2022/04/24 05:49:02;;;;;;;1.70;0.95;;;;;;;11.22;100.00;98407.13;5070960;28;20017;-62
2022/04/24 05:51:28;;;;;;;3.50;1.48;;;;;;;11.27;100.00;98410.34;5073467;28;20522;-62
2022/04/24 05:53:54;;;;;;;1.67;1.00;;;;;;;11.38;100.00;98407.06;5074535;28;20035;-62
2022/04/24 05:56:20;;;;;;;1.90;1.00;;;;;;;11.41;100.00;98410.38;5074665;28;20017;-63
2022/04/24 05:58:45;;;;;;;1.45;1.30;;;;;;;11.44;100.00;98406.66;5074198;28;20365;-62
2022/04/24 06:01:11;;;;;;;2.70;1.30;;;;;;;11.45;100.00;98411.06;5074653;28;20241;-63
2022/04/24 06:03:40;;;;;;;2.78;1.02;;;;;;;11.48;100.00;98413.53;5074203;28;20033;-63
2022/04/24 06:06:06;;;;;;;1.08;0.80;;;;;;;11.45;100.00;98408.41;5074195;28;20040;-62
2022/04/24 06:08:31;;;;;;;4.70;1.23;;;;;;;11.50;100.00;98417.78;5074263;28;20016;-62
2022/04/24 06:10:56;;;;;;;1.83;0.93;;;;;;;11.49;100.00;98412.56;5074226;28;20040;-62
2022/04/24 06:13:22;;;;;;;2.15;1.00;;;;;;;11.58;100.00;98420.84;5073926;28;20032;-62
2022/04/24 06:15:48;;;;;;;1.15;1.00;;;;;;;11.56;100.00;98416.56;5072874;28;20028;-62
2022/04/24 06:18:13;;;;;;;1.80;1.10;;;;;;;11.61;100.00;98417.13;5072442;28;20505;-62
2022/04/24 06:20:39;;;;;;;2.10;0.95;;;;;;;11.63;100.00;98417.91;5074294;28;20218;-61
2022/04/24 06:23:05;;;;;;;0.95;0.85;;;;;;;11.64;100.00;98419.63;5094177;28;20031;-61
2022/04/24 06:25:33;;;;;;;2.00;1.30;;;;;;;11.61;100.00;98414.47;5094090;28;20499;-61
2022/04/24 06:27:59;;;;;;;2.63;1.50;;;;;;;11.62;100.00;98417.03;5093597;28;20024;-61
2022/04/24 06:30:27;;;;;;;2.55;1.50;;;;;;;11.72;100.00;98418.22;5094141;28;20028;-61
2022/04/24 06:32:53;;;;;;;1.83;1.10;;;;;;;11.77;100.00;98415.25;5087579;28;20040;-61
2022/04/24 06:35:20;;;;;;;3.50;1.50;;;;;;;11.78;100.00;98416.97;5073909;28;20036;-61
2022/04/24 06:37:48;;;;;;;3.78;1.85;;;;;;;11.83;100.00;98420.19;5073527;28;20085;-61
2022/04/24 06:40:14;;;;;;;3.97;2.10;;;;;;;11.78;100.00;98414.28;5073711;28;20099;-61
2022/04/24 06:43:00;;;;;;;3.25;2.00;;;;;;;11.77;100.00;98415.25;5073266;28;20031;-61
2022/04/24 06:45:32;;;;;;;5.05;1.90;;;;;;;11.75;100.00;98417.16;5073592;28;20024;-61
2022/04/24 06:48:00;;;;;;;82.32;35.28;;;;;;;11.70;100.00;98413.91;5073542;28;20016;-61
2022/04/24 06:50:27;;;;;;;7.50;4.53;;;;;;;11.64;100.00;98416.97;5075916;28;20037;-61
2022/04/24 06:52:59;;;;;;;4.78;2.58;;;;;;;11.63;100.00;98417.91;5073199;28;20051;-61
2022/04/24 06:55:24;;;;;;;3.20;2.00;;;;;;;11.57;100.00;98421.78;5073512;28;20388;-61
2022/04/24 06:57:51;;;;;;;2.78;1.60;;;;;;;11.63;100.00;98423.25;5073034;28;20031;-61
2022/04/24 07:00:21;;;;;;;3.95;2.22;;;;;;;11.61;100.00;98420.63;5075733;28;20104;-61
2022/04/24 07:02:47;;;;;;;5.30;2.17;;;;;;;11.57;100.00;98420.94;5083750;28;20096;-61
2022/04/24 07:05:13;;;;;;;8.48;3.78;;;;;;;11.62;100.00;98424.16;5093056;28;20035;-61
2022/04/24 07:07:39;;;;;;;3.28;2.05;;;;;;;11.60;100.00;98428.72;5092097;28;20119;-61
2022/04/24 07:10:04;;;;;;;2.42;1.80;;;;;;;11.54;100.00;98434.44;5093343;28;20107;-61
2022/04/24 07:12:30;;;;;;;1.55;1.30;;;;;;;11.48;100.00;98435.66;5093096;28;20378;-61
2022/04/24 07:14:56;;;;;;;1.50;1.17;;;;;;;11.48;100.00;98442.81;5093211;28;20028;-61
2022/04/24 07:17:21;;;;;;;5.40;1.77;;;;;;;11.45;100.00;98446.50;5092715;28;20042;-61
2022/04/24 07:19:47;;;;;;;2.22;1.30;;;;;;;11.48;100.00;98446.31;5093259;28;20158;-61
2022/04/24 07:22:13;;;;;;;4.10;1.92;;;;;;;11.43;100.00;98448.41;5086520;28;20143;-61
2022/04/24 07:24:38;;;;;;;3.80;2.00;;;;;;;11.40;100.00;98442.44;5075269;28;20030;-61
2022/04/24 07:27:03;;;;;;;2.38;1.30;;;;;;;11.43;100.00;98445.72;5072744;28;20469;-61
2022/04/24 07:29:29;;;;;;;2.13;1.15;;;;;;;11.43;100.00;98447.56;5072470;28;20024;-61
2022/04/24 07:31:54;;;;;;;3.05;1.75;;;;;;;11.52;100.00;98457.63;5076718;28;20495;-61
2022/04/24 07:34:20;;;;;;;3.63;1.38;;;;;;;11.39;100.00;98456.66;5092658;28;20027;-61
2022/04/24 07:36:45;;;;;;;1.52;1.20;;;;;;;11.50;100.00;98456.88;5091596;28;20020;-61
2022/04/24 07:39:13;;;;;;;2.72;1.20;;;;;;;11.54;100.00;98455.75;5091130;28;20121;-61
2022/04/24 07:41:38;;;;;;;2.20;1.27;;;;;;;11.59;100.00;98457.19;5091507;28;20105;-61
2022/04/24 07:44:04;;;;;;;2.30;1.20;;;;;;;11.50;100.00;98459.53;5091267;28;20410;-61
2022/04/24 07:46:29;;;;;;;1.30;1.00;;;;;;;11.44;100.00;98459.91;5090914;28;20466;-61
2022/04/24 07:48:54;;;;;;;2.65;1.38;;;;;;;11.52;100.00;98462.97;5090146;28;20016;-61
2022/04/24 07:51:20;;;;;;;1.25;0.98;;;;;;;11.56;100.00;98470.69;5091178;28;20383;-61
2022/04/24 07:53:45;;;;;;;1.35;1.17;;;;;;;11.60;100.00;98474.88;5092423;28;20032;-61
2022/04/24 07:56:11;;;;;;;1.20;1.05;;;;;;;11.69;100.00;98470.81;5092718;28;20030;-61
2022/04/24 07:58:36;;;;;;;1.80;1.20;;;;;;;11.71;100.00;98477.75;5092365;28;20032;-61
2022/04/24 08:01:02;;;;;;;3.33;1.73;;;;;;;11.69;100.00;98476.16;5092267;28;20065;-61
2022/04/24 08:03:30;;;;;;;1.95;0.93;;;;;;;11.76;100.00;98482.81;5092210;28;20040;-61
2022/04/24 08:05:56;;;;;;;1.58;1.30;;;;;;;11.83;100.00;98484.13;5092448;28;20031;-61
2022/04/24 08:08:23;;;;;;;2.53;1.48;;;;;;;11.78;100.00;98475.56;5091845;28;20016;-61
2022/04/24 08:10:51;;;;;;;1.90;1.27;;;;;;;11.75;100.00;98475.75;5091040;28;20123;-61
2022/04/24 08:13:17;;;;;;;2.95;1.60;;;;;;;11.80;100.00;98479.00;5091982;28;20020;-61
2022/04/24 08:15:44;;;;;;;2.25;1.50;;;;;;;11.78;100.00;98483.56;5092047;28;20020;-61
2022/04/24 08:18:10;;;;;;;2.25;1.40;;;;;;;11.74;100.00;98474.06;5091667;28;20075;-61
2022/04/24 08:20:37;;;;;;;3.42;1.75;;;;;;;11.79;100.00;98466.63;5092290;28;20024;-62
2022/04/24 08:23:03;;;;;;;4.53;2.20;;;;;;;11.85;100.00;98471.56;5091763;28;20064;-62
2022/04/24 08:25:34;;;;;;;4.97;2.72;;;;;;;11.97;100.00;98465.50;5080082;28;20048;-62
2022/04/24 08:28:02;;;;;;;3.17;1.70;;;;;;;12.08;100.00;98467.47;5071497;28;20125;-62
2022/04/24 08:30:27;;;;;;;2.83;2.20;;;;;;;12.07;100.00;98471.97;5072040;28;20055;-62
2022/04/24 08:32:53;;;;;;;1.42;1.10;;;;;;;11.96;100.00;98476.25;5083654;28;20059;-62
2022/04/24 08:35:19;;;;;;;2.50;1.70;;;;;;;11.98;100.00;98451.19;5091740;28;20020;-62
2022/04/24 08:37:46;;;;;;;3.70;1.85;;;;;;;12.00;100.00;98470.63;5091669;28;20050;-62
2022/04/24 08:40:13;;;;;;;3.50;2.20;;;;;;;12.20;100.00;98475.56;5091623;28;20097;-62
2022/04/24 08:42:40;;;;;;;2.70;1.67;;;;;;;12.30;100.00;98476.69;5091394;28;20380;-62
2022/04/24 08:45:10;;;;;;;2.35;1.40;;;;;;;12.37;100.00;98475.31;5089945;28;20440;-62
2022/04/24 08:47:36;;;;;;;2.05;1.50;;;;;;;12.45;100.00;98478.38;5071667;28;20024;-62
2022/04/24 08:50:02;;;;;;;1.52;1.15;;;;;;;12.46;100.00;98485.41;5073938;28;20488;-62
2022/04/24 08:52:29;;;;;;;1.65;1.30;;;;;;;12.46;100.00;98488.06;5071492;28;20029;-62
2022/04/24 08:54:56;;;;;;;1.42;1.30;;;;;;;12.53;100.00;98486.72;5071126;28;20025;-62
2022/04/24 08:57:26;;;;;;;1.77;1.13;;;;;;;12.63;100.00;98495.84;5071405;28;20032;-62
2022/04/24 08:59:53;;;;;;;1.73;0.88;;;;;;;12.69;100.00;98497.25;5074776;28;20073;-62
2022/04/24 09:02:18;;;;;;;2.65;0.93;;;;;;;12.53;100.00;98494.72;5091242;28;20024;-62
2022/04/24 09:04:44;;;;;;;1.33;1.00;;;;;;;12.51;100.00;98493.09;5091456;28;20035;-62
2022/04/24 09:07:10;;;;;;;2.85;1.52;;;;;;;12.36;100.00;98499.41;5091522;28;20110;-62
2022/04/24 09:09:43;;;;;;;5.00;1.20;;;;;;;12.32;100.00;98501.41;5091225;28;20012;-62
2022/04/24 09:12:16;;;;;;;1.98;1.35;;;;;;;12.26;100.00;98503.59;5091690;28;20020;-63
2022/04/24 09:14:49;;;;;;;;;;;;;;;12.33;100.00;98504.94;5091796;28;20032;-63
2022/04/24 09:17:22;;;;;;;4.53;2.22;;;;;;;12.36;100.00;98510.94;5078951;28;19912;-63
2022/04/24 09:19:47;;;;;;;3.95;2.28;;;;;;;12.44;100.00;98513.09;5073868;28;20020;-63
2022/04/24 09:22:14;;;;;;;2.65;2.03;;;;;;;12.39;100.00;98510.75;5070749;28;20084;-63
2022/04/24 09:24:59;;;;;;;3.55;2.13;;;;;;;12.43;100.00;98511.41;5070970;28;20031;-63
2022/04/24 09:27:36;;;;;;;4.32;2.63;;;;;;;12.54;100.00;98517.75;5075294;28;20132;-63
2022/04/24 09:30:11;;;;;;;3.85;2.70;;;;;;;12.58;100.00;98515.75;5075000;28;20017;-63
2022/04/24 09:32:50;;;;;;;2.65;1.92;;;;;;;12.45;100.00;98525.50;5084881;28;20472;-63
2022/04/24 09:35:24;;;;;;;2.80;1.55;;;;;;;12.39;100.00;98526.75;5095188;28;20121;-63
2022/04/24 09:37:49;;;;;;;3.65;1.50;;;;;;;12.32;100.00;98532.56;5095345;28;20717;-63
2022/04/24 09:40:15;;;;;;;4.88;1.85;;;;;;;12.29;100.00;98530.09;5094829;28;20020;-63
2022/04/24 09:42:51;;;;;;;5.20;2.40;;;;;;;12.38;100.00;98532.16;5094713;28;20027;-63
2022/04/24 09:45:25;;;;;;;3.35;1.45;;;;;;;12.38;100.00;98535.72;5095006;28;20031;-63
2022/04/24 09:48:02;;;;;;;2.17;1.40;;;;;;;12.41;100.00;98534.63;5094876;28;20027;-63
2022/04/24 09:50:31;;;;;;;3.13;1.83;;;;;;;12.41;100.00;98546.16;5095085;28;20028;-63
2022/04/24 09:52:57;;;;;;;2.92;1.73;;;;;;;12.30;100.00;98545.13;5094989;28;20422;-63
2022/04/24 09:55:26;;;;;;;2.13;1.50;;;;;;;12.32;100.00;98549.41;5094630;28;20099;-63
2022/04/24 09:57:54;;;;;;;3.33;1.52;;;;;;;12.36;100.00;98548.28;5094645;28;20024;-63
2022/04/24 10:00:19;;;;;;;5.38;2.05;;;;;;;12.33;100.00;98558.28;5094341;28;20085;-63
2022/04/24 10:02:51;;;;;;;6.60;3.17;;;;;;;12.30;100.00;98546.00;5094338;28;20032;-63
2022/04/24 10:05:18;;;;;;;4.50;2.38;;;;;;;12.26;100.00;98556.94;5094413;28;20114;-63
2022/04/24 10:07:45;;;;;;;5.95;3.05;;;;;;;12.17;100.00;98547.72;5094349;28;20024;-63
2022/04/24 10:10:12;;;;;;;3.72;2.42;;;;;;;12.26;100.00;98559.59;5093751;28;20036;-63
2022/04/24 10:12:38;;;;;;;7.63;2.08;;;;;;;12.39;100.00;98558.75;5094101;28;20031;-62
2022/04/24 10:15:12;;;;;;;2.88;1.83;;;;;;;12.44;100.00;98561.97;5094230;28;20035;-62
2022/04/24 10:18:02;;;;;;;3.55;1.80;;;;;;;12.49;100.00;98554.53;5094423;28;20532;-62
2022/04/24 10:20:33;;;;;;;4.68;2.88;;;;;;;12.59;100.00;98555.66;5076161;28;20357;-62
2022/04/24 10:22:59;;;;;;;3.60;1.85;;;;;;;12.68;100.00;98555.09;5073661;28;20471;-61
2022/04/24 10:25:43;;;;;;;3.58;2.00;;;;;;;12.92;100.00;98555.31;5073838;28;20107;-61
2022/04/24 10:28:13;;;;;;;3.42;1.73;;;;;;;13.09;100.00;98561.31;5074157;28;20099;-63
2022/04/24 10:30:39;;;;;;;3.55;1.65;;;;;;;13.12;100.00;98565.56;5073650;28;20024;-62
2022/04/24 10:33:26;;;;;;;2.17;1.30;;;;;;;13.08;100.00;98566.72;5087553;28;20027;-61
2022/04/24 10:35:59;;;;;;;1.30;0.90;;;;;;;12.97;100.00;98555.84;5093317;28;20081;-61
2022/04/24 10:38:26;;;;;;;3.20;1.42;;;;;;;12.93;100.00;98565.03;5089927;28;20029;-61
2022/04/24 10:41:06;;;;;;;2.78;1.30;;;;;;;12.97;100.00;98561.19;5073843;28;20103;-61
2022/04/24 10:43:45;;;;;;;2.53;1.30;;;;;;;13.11;100.00;98570.03;5074566;28;20115;-61
2022/04/24 10:46:26;;;;;;;2.15;1.30;;;;;;;13.17;100.00;98564.31;5073686;28;20074;-61
2022/04/24 10:48:52;;;;;;;2.80;1.50;;;;;;;13.30;100.00;98560.81;5074467;28;20479;-61
2022/04/24 10:51:29;;;;;;;6.28;1.60;;;;;;;13.26;100.00;98562.84;5073107;28;20016;-61
2022/04/24 10:54:09;;;;;;;2.55;1.70;;;;;;;13.24;100.00;98570.94;5073701;28;20418;-62
2022/04/24 10:56:37;;;;;;;3.75;1.70;;;;;;;13.29;100.00;98577.81;5072973;28;20060;-62
2022/04/24 10:59:22;;;;;;;3.70;1.63;;;;;;;13.26;100.00;98572.69;5073290;28;20088;-62
2022/04/24 11:01:52;;;;;;;4.65;1.80;;;;;;;13.21;100.00;98571.16;5076622;28;20028;-62
2022/04/24 11:04:18;;;;;;;8.25;2.70;;;;;;;13.31;100.00;98571.38;5093218;28;20083;-62
2022/04/24 11:07:02;;;;;;;4.63;2.70;;;;;;;13.34;100.00;98571.22;5093268;28;20036;-62
2022/04/24 11:09:32;;;;;;;5.18;1.88;;;;;;;13.33;100.00;98571.31;5092310;28;20065;-62
2022/04/24 11:12:05;;;;;;;4.80;1.88;;;;;;;13.33;100.00;98566.81;5092755;28;20035;-62
2022/04/24 11:14:30;;;;;;;3.28;2.78;;;;;;;13.24;100.00;98573.63;5093430;28;20024;-63
2022/04/24 11:16:58;;;;;;;2.97;1.95;;;;;;;13.30;100.00;98577.69;5092763;28;20498;-64
2022/04/24 11:19:26;;;;;;;3.63;2.22;;;;;;;13.32;100.00;98580.28;5093202;28;20427;-63
2022/04/24 11:22:02;;;;;;;3.95;2.38;;;;;;;13.19;100.00;98580.22;5092652;28;20036;-63
2022/04/24 11:24:29;;;;;;;3.13;1.70;;;;;;;13.27;100.00;98585.06;5092939;28;20104;-63